Latest Coastal Weather Observations for Carnarvon

IDW60701

Issued at 6:02 pm WST Saturday 1 August 2015 (issued every 10 minutes, with the page automatically refreshed every 10 minutes)

About coastal observations | Map of coastal stations | Coastal observations for WA | Marine services | Other Formats
Station Details ID: 006011 Name: CARNARVON AIRPORT Lat: -24.89 Lon: 113.67 Height: 4.0 m
Data from the previous 72 hours. | See also: Recent months at Carnarvon
Date/Time
WST
Temp

°C
Wind Pressure Rain
since 9am
mm
Weather Cloud Vis
km
Sea
Height
m
Swell
Dir
 
Speed
knots
Gust
knots
hPa Trend Height
m
Period
s
Dir
01/06:00pm 19.5 SSW 9 11 1019.5 - 0.0 - - 10 - - - -
01/05:30pm 20.3 SSW 10 12 1019.3 - 0.0 - - 10 - - - -
01/05:00pm 21.0 SSW 9 11 1019.0 - 0.0 - - 10 - - - -
01/04:30pm 21.2 SW 10 12 1018.8 - 0.0 - - 10 - - - -
01/04:00pm 22.1 SSW 10 13 1018.8 - 0.0 - - 10 - - - -
01/03:30pm 21.8 SSW 10 13 1018.7 - 0.0 - - 10 - - - -
01/03:00pm 22.0 SW 10 12 1018.7 - 0.0 Fine Mostly clear 30 - - - -
01/02:30pm 21.6 SSW 10 14 1018.7 - 0.0 - - 10 - - - -
01/02:00pm 21.4 SSW 9 12 1018.8 - 0.0 - - 10 - - - -
01/01:30pm 21.2 SSW 9 12 1018.9 - 0.0 - - 10 - - - -
01/01:00pm 22.1 SSW 10 12 1019.2 - 0.0 - - 10 - - - -
01/12:30pm 21.7 SSW 10 13 1019.4 - 0.0 - - 10 - - - -
01/12:00pm 21.6 SSW 8 10 1019.6 - 0.0 - - 10 - - - -
01/11:30am 21.3 SSW 8 12 1019.8 - 0.0 - - 10 - - - -
01/11:00am 21.2 SSW 7 10 1020.0 - 0.0 - - 10 - - - -
01/10:30am 21.1 S 7 8 1020.0 - 0.0 - Partly cloudy 10 - - - -
01/10:00am 21.1 S 8 11 1020.0 - 0.0 - Partly cloudy 10 - - - -
01/09:30am 21.0 SSW 7 10 1019.6 - 0.0 - - 10 - - - -
01/09:00am 20.4 NE 1 4 1019.1 - 4.6 Fine Mostly clear 18 - - - -
01/08:30am 18.4 E 3 4 1018.8 - 4.6 - - 10 - - - -
01/08:00am 17.0 ENE 2 4 1018.5 - 4.6 - Partly cloudy 10 - - - -
01/07:30am 15.1 ENE 5 6 1018.0 - 4.6 - - 10 - - - -
01/07:00am 15.4 ESE 5 7 1017.5 - 4.6 - - 10 - - - -
01/06:30am 17.8 S 8 10 1017.1 - 4.6 - Partly cloudy 10 - - - -
01/06:00am 17.8 SW 7 8 1016.8 - 4.6 - Mostly clear 10 - - - -
01/05:30am 17.3 W 4 6 1016.8 - 4.6 - Partly cloudy 10 - - - -
01/05:00am 17.5 W 5 6 1016.7 - 4.6 - Partly cloudy 10 - - - -
01/04:30am 18.1 WNW 6 8 1016.6 - 4.6 - Partly cloudy 10 - - - -
01/04:00am 17.9 WSW 5 7 1016.6 - 4.6 - Partly cloudy 10 - - - -
01/03:30am 17.5 WNW 4 6 1016.7 - 4.6 - Partly cloudy 10 - - - -
01/03:00am 18.0 WNW 5 7 1016.7 - 4.6 - Cloudy 10 - - - -
01/02:30am 18.3 W 7 9 1016.8 - 4.6 - Partly cloudy 10 - - - -
01/02:00am 18.6 W 12 19 1017.2 - 4.6 - Partly cloudy 10 - - - -
01/01:30am 17.2 CALM 0 0 1017.1 - 4.4 - Partly cloudy 10 - - - -
01/01:00am 18.0 SW 4 5 1017.2 - 4.4 - Partly cloudy 10 - - - -
01/12:30am 18.8 SW 7 9 1017.2 - 4.4 - Cloudy 10 - - - -
01/12:00am 19.1 SW 9 13 1017.3 - 4.4 - Cloudy 10 - - - -
 
Date/Time
WST
Temp

°C
Wind Pressure Rain
since 9am
mm
Weather Cloud Vis
km
Sea
Height
m
Swell
Dir
 
Speed
knots
Gust
knots
hPa Trend Height
m
Period
s
Dir
31/11:34pm 19.5 WSW 15 21 1017.3 - 4.4 - Partly cloudy 10 - - - -
31/11:30pm 19.5 W 7 10 1017.3 - 4.4 - Partly cloudy 10 - - - -
31/11:00pm 19.0 WNW 7 10 1017.4 - 4.4 - - 10 - - - -
31/10:30pm 19.3 WNW 9 12 1017.3 - 4.4 - Partly cloudy 10 - - - -
31/10:00pm 20.1 W 12 16 1017.3 - 4.4 - - 10 - - - -
31/09:30pm 20.1 W 12 16 1017.3 - 4.4 - Partly cloudy 10 - - - -
31/09:00pm 19.9 W 9 13 1017.1 - 4.4 - - 10 - - - -
31/08:30pm 20.1 WSW 9 12 1016.9 - 4.4 - - 10 - - - -
31/08:00pm 20.3 WSW 11 17 1016.7 - 4.4 - Partly cloudy 10 - - - -
31/07:30pm 19.9 W 6 14 1016.3 - 4.4 - Partly cloudy 10 - - - -
31/07:00pm 19.4 WSW 7 11 1016.2 - 4.4 - Partly cloudy 10 - - - -
31/06:30pm 19.7 WSW 14 21 1016.0 - 4.4 - Partly cloudy 10 - - - -
31/06:00pm 20.7 W 10 14 1015.7 - 4.4 - Cloudy 10 - - - -
31/05:30pm 21.2 W 12 15 1015.6 - 4.4 - Partly cloudy 10 - - - -
31/05:00pm 21.6 W 10 15 1015.3 - 4.4 - Partly cloudy 10 - - - -
31/04:30pm 21.7 WSW 14 20 1015.3 - 4.4 - Partly cloudy 10 - - - -
31/04:00pm 22.1 W 13 17 1015.1 - 4.4 - Partly cloudy 10 - - - -
31/03:30pm 22.3 W 11 15 1015.1 - 4.4 - Partly cloudy 10 - - - -
31/03:00pm 21.3 W 11 16 1015.2 - 4.4 Fine Cloudy 12 - - - -
31/02:56pm 21.3 WSW 12 16 1015.2 - 4.4 - Partly cloudy 10 - - - -
31/02:45pm 22.1 W 11 17 1015.2 - 4.2 - Partly cloudy 10 - - - -
31/02:30pm 22.3 WNW 11 14 1015.2 - 4.2 - Partly cloudy 10 - - - -
31/02:14pm 22.1 W 11 14 1015.3 - 4.2 - Partly cloudy 10 - - - -
31/02:00pm 21.1 WNW 10 17 1015.3 - 4.2 - Partly cloudy 8 - - - -
31/01:59pm 21.1 WNW 10 17 1015.3 - 4.2 - Partly cloudy 8 - - - -
31/01:44pm 21.0 W 17 26 1015.3 - 1.4 - Partly cloudy 6 - - - -
31/01:30pm 24.6 NW 13 17 1015.2 - 0.0 - Partly cloudy 10 - - - -
31/01:00pm 25.4 NW 14 19 1015.6 - 0.0 - Partly cloudy 10 - - - -
31/12:30pm 24.5 NW 14 17 1016.1 - 0.0 - Partly cloudy 10 - - - -
31/12:00pm 24.6 NW 13 17 1016.2 - 0.0 - Mostly clear 10 - - - -
31/11:30am 24.3 NW 11 15 1016.6 - 0.0 - Partly cloudy 10 - - - -
31/11:00am 23.6 NW 10 13 1017.0 - 0.0 - Cloudy 10 - - - -
31/10:30am 24.5 NNW 10 13 1017.4 - 0.0 - Partly cloudy 10 - - - -
31/10:00am 23.3 N 7 10 1017.4 - 0.0 - Partly cloudy 10 - - - -
31/09:30am 22.4 N 7 9 1017.3 - 0.0 - - 10 - - - -
31/09:00am 21.0 N 5 7 1017.2 - 0.2 Fine Mostly clear 18 - - - -
31/08:30am 19.2 NNE 4 6 1017.0 - 0.2 - - 10 - - - -
31/08:29am 19.2 NNE 4 5 1017.0 - 0.2 - - 10 - - - -
31/08:17am 18.3 NNE 5 6 1016.9 - 0.2 - Partly cloudy 8 - - - -
31/08:03am 17.5 NNE 5 6 1016.8 - 0.2 - Partly cloudy 7 - - - -
31/08:00am 17.3 NNE 5 6 1016.8 - 0.2 - Partly cloudy 7 - - - -
31/07:35am 16.9 NNE 4 5 1016.6 - 0.2 - Partly cloudy 5 - - - -
31/07:30am 16.8 NNE 4 5 1016.6 - 0.2 - Partly cloudy 3 - - - -
31/07:06am 16.4 NNE 5 7 1016.3 - 0.2 - Partly cloudy 2 - - - -
31/07:00am 16.2 NNE 5 7 1016.2 - 0.2 - Partly cloudy 3 - - - -
31/06:47am 16.0 NNE 6 6 1016.2 - 0.2 - Partly cloudy 8 - - - -
31/06:30am 16.0 NNE 5 5 1016.1 - 0.2 - Partly cloudy 10 - - - -
31/06:00am 16.5 N 5 5 1015.8 - 0.2 - Mostly cloudy 10 - - - -
31/05:30am 16.8 N 3 3 1015.8 - 0.2 - Partly cloudy 10 - - - -
31/05:00am 16.4 N 4 5 1015.7 - 0.2 - Partly cloudy 10 - - - -
31/04:30am 16.5 N 4 4 1016.0 - 0.2 - Partly cloudy 10 - - - -
31/04:15am 16.7 NW 3 5 1016.1 - 0.2 - Partly cloudy 10 - - - -
31/04:00am 16.7 CALM 0 0 1016.3 - 0.2 - Partly cloudy 7 - - - -
31/03:30am 16.7 CALM 0 0 1016.5 - 0.2 - - 0.1 - - - -
31/03:00am 17.5 CALM 0 0 1016.6 - 0.2 - Mostly clear 0.2 - - - -
31/02:30am 17.4 WSW 2 3 1016.8 - 0.2 - Partly cloudy 0.3 - - - -
31/02:00am 18.2 WSW 4 4 1017.3 - 0.2 - - 0.7 - - - -
31/01:30am 17.4 WSW 2 4 1017.4 - 0.2 - - 0.1 - - - -
31/01:00am 18.5 WSW 3 4 1017.6 - 0.2 - Partly cloudy 0.8 - - - -
31/12:54am 18.5 WSW 4 5 1017.6 - 0.2 - Partly cloudy 8 - - - -
31/12:30am 20.6 WSW 4 5 1017.6 - 0.2 - Partly cloudy 10 - - - -
31/12:00am 20.9 W 4 4 1017.9 - 0.2 - Mostly clear 10 - - - -
 
Date/Time
WST
Temp

°C
Wind Pressure Rain
since 9am
mm
Weather Cloud Vis
km
Sea
Height
m
Swell
Dir
 
Speed
knots
Gust
knots
hPa Trend Height
m
Period
s
Dir
30/11:30pm 21.4 W 5 6 1018.3 - 0.2 - - 10 - - - -
30/11:00pm 21.7 WSW 6 7 1018.4 - 0.2 - - 10 - - - -
30/10:30pm 21.4 W 6 8 1018.5 - 0.2 - - 10 - - - -
30/10:00pm 21.1 NW 5 6 1018.4 - 0.2 - - 10 - - - -
30/09:30pm 19.6 NNW 5 5 1018.4 - 0.2 - - 10 - - - -
30/09:00pm 19.6 NW 3 4 1018.5 - 0.2 - - 10 - - - -
30/08:30pm 20.4 NW 5 6 1018.4 - 0.2 - - 10 - - - -
30/08:00pm 20.2 NW 5 5 1018.1 - 0.2 - - 10 - - - -
30/07:30pm 21.3 WNW 5 6 1018.1 - 0.2 - - 10 - - - -
30/07:00pm 21.7 WNW 6 8 1017.9 - 0.2 - - 10 - - - -
30/06:30pm 22.1 W 6 8 1017.7 - 0.2 - - 10 - - - -
30/06:00pm 22.6 W 6 8 1017.6 - 0.2 - - 10 - - - -
30/05:30pm 23.6 W 7 11 1017.6 - 0.2 - - 10 - - - -
30/05:00pm 23.8 WSW 9 12 1017.6 - 0.2 - - 10 - - - -
30/04:30pm 23.9 WSW 11 14 1017.5 - 0.2 - - 10 - - - -
30/04:00pm 24.0 W 12 17 1017.4 - 0.2 - - 10 - - - -
30/03:30pm 24.4 W 12 17 1017.3 - 0.2 - - 10 - - - -
30/03:00pm 25.7 WSW 11 13 1017.2 - 0.2 Fine Mostly clear 30 - - - -
30/02:30pm 28.4 W 9 12 1017.3 - 0.2 - - 10 - - - -
30/02:00pm 28.8 WNW 10 13 1017.4 - 0.2 - - 10 - - - -
30/01:30pm 29.0 WNW 10 12 1017.5 - 0.2 - - 10 - - - -
30/01:00pm 30.7 N 10 14 1017.9 - 0.2 - - 10 - - - -
30/12:30pm 29.9 N 10 13 1018.3 - 0.2 - - 10 - - - -
30/12:00pm 29.1 NNE 11 15 1018.7 - 0.2 - - 10 - - - -
30/11:30am 28.0 NNE 11 15 1019.2 - 0.2 - - 10 - - - -
30/11:00am 26.7 NNE 10 13 1019.6 - 0.2 - - 10 - - - -
30/10:30am 25.2 NNE 11 14 1019.8 - 0.2 - - 10 - - - -
30/10:00am 23.5 NE 10 14 1020.0 - 0.2 - - 10 - - - -
30/09:30am 21.6 NE 10 13 1020.1 - 0.2 - - 10 - - - -
30/09:00am 20.1 NE 8 11 1020.0 - 0.2 Fine Partly cloudy 25 - - - -
30/08:30am 18.8 ENE 6 9 1019.8 - 0.2 - - 10 - - - -
30/08:20am 18.8 ENE 5 7 1019.8 - 0.2 - - 10 - - - -
30/08:00am 18.1 ESE 3 4 1019.7 - 0.2 - Partly cloudy 3 - - - -
30/07:59am 17.9 ESE 3 4 1019.7 - 0.2 - Partly cloudy 3 - - - -
30/07:30am 17.4 ENE 4 5 1019.3 - 0.2 - Cloudy 0.5 - - - -
30/07:00am 17.7 E 5 7 1019.1 - 0.2 - Cloudy 0.3 - - - -
30/06:30am 18.0 E 6 7 1019.0 - 0.2 - Cloudy 0.2 - - - -
30/06:00am 17.4 ESE 6 7 1018.9 - 0.2 - Cloudy 0.2 - - - -
30/05:30am 17.4 ESE 5 6 1018.9 - 0.2 - Cloudy 0.2 - - - -
30/05:00am 17.0 ESE 6 7 1018.9 - 0.2 - Partly cloudy 0.5 - - - -
30/04:50am 17.0 ESE 6 7 1018.9 - 0.2 - Partly cloudy 3 - - - -
30/04:46am 17.0 ESE 6 7 1019.0 - 0.2 - Partly cloudy 8 - - - -
30/04:40am 16.9 ESE 5 6 1018.9 - 0.2 - Partly cloudy 10 - - - -
30/04:35am 16.8 ESE 5 6 1018.9 - 0.2 - Partly cloudy 10 - - - -
30/04:30am 16.8 ESE 5 6 1018.9 - 0.2 - Partly cloudy 8 - - - -
30/04:00am 17.1 ESE 6 7 1019.0 - 0.2 - Cloudy 0.3 - - - -
30/03:30am 16.9 ESE 5 6 1019.2 - 0.2 - Cloudy 0.2 - - - -
30/03:00am 16.8 ESE 5 6 1019.3 - 0.2 - Cloudy 0.2 - - - -
30/02:30am 16.2 ESE 5 6 1019.4 - 0.2 - Partly cloudy 0.2 - - - -
30/02:00am 16.3 ESE 4 5 1019.6 - 0.2 - Cloudy 0.1 - - - -
30/01:30am 16.3 SE 5 6 1019.8 - 0.2 - Partly cloudy 0.1 - - - -
30/01:27am 16.3 SE 4 5 1019.8 - 0.2 - Partly cloudy 0.1 - - - -
30/01:00am 17.1 SE 5 6 1020.0 - 0.2 - Partly cloudy 0.2 - - - -
30/12:50am 17.1 SE 5 5 1020.0 - 0.2 - - 8 - - - -
30/12:30am 17.6 SSE 4 5 1020.0 - 0.2 - - 10 - - - -
30/12:00am 17.3 SSE 5 6 1020.1 - 0.2 - - 10 - - - -
 
Date/Time
WST
Temp

°C
Wind Pressure Rain
since 9am
mm
Weather Cloud Vis
km
Sea
Height
m
Swell
Dir
 
Speed
knots
Gust
knots
hPa Trend Height
m
Period
s
Dir
29/11:32pm 17.5 SSE 6 6 1020.3 - 0.2 - - 10 - - - -
29/11:30pm 17.7 SSE 6 6 1020.3 - 0.2 - - 10 - - - -
29/11:00pm 17.7 S 3 4 1020.2 - 0.2 - - 0.6 - - - -
29/10:45pm 19.6 SSW 3 3 1020.2 - 0.2 - - 8 - - - -
29/10:30pm 19.6 SSW 2 4 1020.2 - 0.2 - - 10 - - - -
29/10:00pm 20.1 SW 5 6 1020.3 - 0.2 - - 10 - - - -
29/09:30pm 20.5 SW 6 7 1020.4 - 0.2 - - 10 - - - -
29/09:00pm 20.6 SW 7 8 1020.4 - 0.2 - - 10 - - - -
29/08:30pm 20.4 SW 6 7 1020.3 - 0.2 - - 10 - - - -
29/08:00pm 20.7 WSW 6 6 1020.1 - 0.2 - - 10 - - - -
29/07:30pm 21.0 WSW 5 7 1019.9 - 0.2 - - 10 - - - -
29/07:00pm 21.3 W 6 7 1019.6 - 0.2 - - 10 - - - -
29/06:30pm 21.6 W 6 8 1019.4 - 0.2 - - 10 - - - -

Other Formats:

Comma delimited format used in spreadsheet applications
http://www.bom.gov.au/fwo/IDW60701/IDW60701.94300.axf

JavaScript Object Notation format (JSON) in row-major order
http://www.bom.gov.au/fwo/IDW60701/IDW60701.94300.json